Time;durP1;ratioP1;P1;durP2;ratioP2;P2;SDS_P1;SDS_P2;PMS_P1;PMS_P2;Temp;Humidity;BMP_temperature;BMP_pressure;BME280_temperature;BME280_humidity;BME280_pressure;Samples;Min_cycle;Max_cycle;Signal;HPM_P1;HPM_P2
2022/05/04 00:00:19;;;;;;;7.30;5.90;;;14.40;1.00;;;;;;5070054;28;20202;-75
2022/05/04 00:02:46;;;;;;;9.82;8.82;;;14.40;1.00;;;;;;5070357;28;20237;-74
2022/05/04 00:05:13;;;;;;;14.82;12.75;;;14.40;1.00;;;;;;5070145;28;20279;-76
2022/05/04 00:07:42;;;;;;;11.20;10.00;;;14.20;99.90;;;;;;5070482;28;20202;-75
2022/05/04 00:10:09;;;;;;;10.13;9.07;;;14.10;99.90;;;;;;5069884;28;20234;-75
2022/05/04 00:12:36;;;;;;;10.60;7.63;;;14.10;99.90;;;;;;5070266;28;20242;-76
2022/05/04 00:15:04;;;;;;;5.55;5.05;;;14.20;99.90;;;;;;5069564;28;20248;-73
2022/05/04 00:17:31;;;;;;;9.23;4.75;;;14.20;99.90;;;;;;5070014;28;20242;-76
2022/05/04 00:19:58;;;;;;;3.72;3.40;;;14.20;99.90;;;;;;5069802;28;20747;-74
2022/05/04 00:22:27;;;;;;;6.93;3.92;;;14.00;99.90;;;;;;5071409;28;20206;-75
2022/05/04 00:24:56;;;;;;;3.83;3.03;;;13.90;99.90;;;;;;5074107;28;20202;-75
2022/05/04 00:27:24;;;;;;;3.80;3.22;;;13.90;99.90;;;;;;5073806;28;20241;-74
2022/05/04 00:29:51;;;;;;;3.97;3.47;;;13.90;99.90;;;;;;5073824;28;20234;-74
2022/05/04 00:32:18;;;;;;;4.15;3.80;;;13.90;99.90;;;;;;5073200;28;20271;-75
2022/05/04 00:34:45;;;;;;;3.58;3.28;;;14.00;99.90;;;;;;5073693;28;20275;-75
2022/05/04 00:37:13;;;;;;;6.53;4.00;;;14.10;99.90;;;;;;5073117;28;20249;-74
2022/05/04 00:39:40;;;;;;;3.72;3.40;;;14.10;99.90;;;;;;5073233;28;20209;-74
2022/05/04 00:42:14;;;;;;;4.32;3.92;;;14.00;99.90;;;;;;5059142;28;20215;-73
2022/05/04 00:44:42;;;;;;;4.60;3.88;;;13.90;99.90;;;;;;5053458;28;20207;-73
2022/05/04 00:47:09;;;;;;;4.03;3.60;;;13.90;99.90;;;;;;5052919;28;20248;-73
2022/05/04 00:49:37;;;;;;;5.95;3.88;;;13.80;99.90;;;;;;5053433;28;20595;-74
2022/05/04 00:52:05;;;;;;;3.33;2.92;;;13.70;99.90;;;;;;5052990;28;20206;-78
2022/05/04 00:54:33;;;;;;;5.20;3.67;;;13.60;99.90;;;;;;5053388;28;20202;-75
2022/05/04 00:57:01;;;;;;;4.05;3.65;;;13.70;99.90;;;;;;5053086;28;20627;-75
2022/05/04 00:59:30;;;;;;;4.30;3.75;;;13.70;99.90;;;;;;5053364;28;20260;-75
2022/05/04 01:01:58;;;;;;;4.47;4.07;;;13.60;99.90;;;;;;5052925;28;20282;-76
2022/05/04 01:04:25;;;;;;;5.35;3.63;;;13.60;99.90;;;;;;5053384;28;20203;-77
2022/05/04 01:06:53;;;;;;;4.68;4.07;;;13.40;99.90;;;;;;5053210;28;20720;-76
2022/05/04 01:09:20;;;;;;;6.72;4.53;;;13.30;1.00;;;;;;5052836;28;20256;-75
2022/05/04 01:11:47;;;;;;;5.80;4.13;;;13.60;1.00;;;;;;5053274;28;20242;-76
2022/05/04 01:14:15;;;;;;;4.60;4.20;;;13.70;1.00;;;;;;5052478;28;20214;-74
2022/05/04 01:16:48;;;;;;;6.45;5.78;;;13.60;1.00;;;;;;5053243;28;20199;-75
2022/05/04 01:19:16;;;;;;;4.50;4.10;;;13.60;1.00;;;;;;5052396;28;20590;-76
2022/05/04 01:21:43;;;;;;;5.50;4.90;;;13.70;1.00;;;;;;5053094;28;20210;-75
2022/05/04 01:24:11;;;;;;;4.38;3.97;;;13.80;1.00;;;;;;5052617;28;20211;-75
2022/05/04 01:26:38;;;;;;;6.18;4.85;;;13.70;1.00;;;;;;5052753;28;20269;-76
2022/05/04 01:29:05;;;;;;;8.13;4.75;;;13.60;1.00;;;;;;5052359;28;20203;-76
2022/05/04 01:31:32;;;;;;;5.18;4.63;;;13.60;1.00;;;;;;5052321;28;20238;-75
2022/05/04 01:34:00;;;;;;;6.68;5.72;;;13.70;1.00;;;;;;5051051;28;20269;-74
2022/05/04 01:36:28;;;;;;;5.30;4.32;;;13.70;1.00;;;;;;5052508;28;20215;-73
2022/05/04 01:38:55;;;;;;;5.55;5.05;;;13.70;1.00;;;;;;5052547;28;20210;-76
2022/05/04 01:44:07;;;;;;;7.32;4.32;;;13.90;99.90;;;;;;5051895;28;20212;-74
2022/05/04 01:46:34;;;;;;;5.03;4.03;;;13.80;99.90;;;;;;5052745;28;20260;-75
2022/05/04 01:49:01;;;;;;;5.20;4.75;;;13.70;99.90;;;;;;5052057;28;20202;-75
2022/05/04 01:51:28;;;;;;;4.15;3.75;;;13.60;99.90;;;;;;5052202;28;20284;-75
2022/05/04 01:53:56;;;;;;;5.20;4.70;;;13.60;99.90;;;;;;5052312;28;20210;-74
2022/05/04 01:56:24;;;;;;;4.70;3.83;;;13.60;99.90;;;;;;5052141;28;20214;-74
2022/05/04 01:58:51;;;;;;;5.65;3.70;;;13.60;99.90;;;;;;5051742;28;20202;-74
2022/05/04 02:01:18;;;;;;;6.15;3.88;;;13.70;99.90;;;;;;5051843;28;20293;-75
2022/05/04 02:03:46;;;;;;;6.30;4.32;;;13.70;99.90;;;;;;5052054;28;20277;-75
2022/05/04 02:06:13;;;;;;;6.45;4.90;;;13.80;99.90;;;;;;5051647;28;20280;-74
2022/05/04 02:08:41;;;;;;;4.93;4.47;;;13.90;99.90;;;;;;5051844;28;20615;-75
2022/05/04 02:11:08;;;;;;;5.78;4.32;;;13.90;99.90;;;;;;5051295;28;20668;-75
2022/05/04 02:13:37;;;;;;;5.20;4.47;;;14.00;99.90;;;;;;5051496;28;20203;-75
2022/05/04 02:16:05;;;;;;;5.15;4.65;;;14.00;99.90;;;;;;5051235;28;20203;-75
2022/05/04 02:18:32;;;;;;;5.15;4.65;;;13.90;99.90;;;;;;5051810;28;20615;-74
2022/05/04 02:21:00;;;;;;;7.95;5.13;;;14.00;99.90;;;;;;5051201;28;20202;-72
2022/05/04 02:23:27;;;;;;;6.22;5.55;;;13.90;99.90;;;;;;5051693;28;20268;-72
2022/05/04 02:25:54;;;;;;;7.60;5.85;;;14.00;99.90;;;;;;5051731;28;20260;-73
2022/05/04 02:28:21;;;;;;;6.65;6.00;;;14.00;99.90;;;;;;5050659;28;20261;-73
2022/05/04 02:30:49;;;;;;;7.40;6.70;;;14.10;99.90;;;;;;5051414;28;20230;-72
2022/05/04 02:33:16;;;;;;;13.07;7.68;;;14.10;99.90;;;;;;5051262;28;21054;-72
2022/05/04 02:38:28;;;;;;;9.27;7.47;;;14.00;99.90;;;;;;5051408;28;20618;-73
2022/05/04 02:40:55;;;;;;;7.20;6.50;;;14.10;99.90;;;;;;5051776;28;20282;-75
2022/05/04 02:43:22;;;;;;;8.93;7.20;;;14.10;99.90;;;;;;5051259;28;20202;-81
2022/05/04 02:45:51;;;;;;;7.07;6.38;;;14.10;99.90;;;;;;5051319;28;20203;-72
2022/05/04 02:48:18;;;;;;;10.20;8.25;;;14.10;99.90;;;;;;5050766;28;20902;-75
2022/05/04 02:50:45;;;;;;;8.77;7.57;;;14.20;99.90;;;;;;5050943;28;20231;-75
2022/05/04 02:53:12;;;;;;;6.78;6.18;;;14.10;99.90;;;;;;5050754;28;20252;-76
2022/05/04 02:55:39;;;;;;;7.90;7.15;;;14.20;99.90;;;;;;5051139;28;20203;-75
2022/05/04 02:58:06;;;;;;;8.68;7.78;;;14.20;99.90;;;;;;5050556;28;20199;-76
2022/05/04 03:00:33;;;;;;;8.07;7.25;;;14.20;99.90;;;;;;5051122;28;20206;-74
2022/05/04 03:03:00;;;;;;;9.18;7.97;;;14.20;99.90;;;;;;5050550;28;20202;-78
2022/05/04 03:05:27;;;;;;;7.95;7.15;;;14.20;99.90;;;;;;5050984;28;20218;-77
2022/05/04 03:07:54;;;;;;;9.13;8.18;;;14.20;99.90;;;;;;5051344;28;20207;-78
2022/05/04 03:10:21;;;;;;;9.60;8.70;;;14.20;99.90;;;;;;5051285;28;20203;-77
2022/05/04 03:12:48;;;;;;;9.65;8.65;;;14.30;99.90;;;;;;5050899;28;20203;-80
2022/05/04 03:15:15;;;;;;;9.75;8.20;;;14.30;99.90;;;;;;5050431;28;20206;-79
2022/05/04 03:17:42;;;;;;;9.90;8.98;;;14.30;99.90;;;;;;5051095;28;20732;-81
2022/05/04 03:20:12;;;;;;;10.38;9.48;;;14.30;99.90;;;;;;5050950;28;20207;-81
2022/05/04 03:22:39;;;;;;;9.13;8.32;;;14.20;99.90;;;;;;5051479;28;20242;-83
2022/05/04 03:25:08;;;;;;;10.23;8.52;;;14.20;99.90;;;;;;5050864;28;20241;-77
2022/05/04 03:27:35;;;;;;;11.55;9.50;;;14.20;99.90;;;;;;5050568;28;20209;-75
2022/05/04 03:30:02;;;;;;;10.93;9.65;;;14.20;99.90;;;;;;5050184;28;20207;-72
2022/05/04 03:32:29;;;;;;;10.25;9.25;;;14.30;99.90;;;;;;5050471;28;20241;-73
2022/05/04 03:34:56;;;;;;;11.30;10.15;;;14.20;99.90;;;;;;5051085;28;20210;-77
2022/05/04 03:37:25;;;;;;;11.95;10.75;;;14.20;99.90;;;;;;5050900;28;20211;-75
2022/05/04 03:39:52;;;;;;;14.63;9.93;;;14.30;99.90;;;;;;5050843;28;20210;-73
2022/05/04 03:42:19;;;;;;;12.32;11.23;;;14.20;99.90;;;;;;5050098;28;20206;-74
2022/05/04 03:44:46;;;;;;;13.88;12.48;;;14.30;99.90;;;;;;5050471;28;20206;-75
2022/05/04 03:47:13;;;;;;;14.43;13.05;;;14.30;99.90;;;;;;5049982;28;20203;-77
2022/05/04 03:49:40;;;;;;;15.30;13.80;;;14.30;99.90;;;;;;5050770;28;20202;-74
2022/05/04 03:52:08;;;;;;;13.52;12.13;;;14.30;99.90;;;;;;5049802;28;20238;-73
2022/05/04 03:54:37;;;;;;;14.02;12.73;;;14.20;99.90;;;;;;5050255;28;20234;-73
2022/05/04 03:57:04;;;;;;;16.27;13.45;;;14.20;99.90;;;;;;5050196;28;20209;-74
2022/05/04 03:59:32;;;;;;;19.35;15.55;;;14.10;1.00;;;;;;5054198;28;20210;-75
2022/05/04 04:01:59;;;;;;;16.60;14.90;;;14.20;1.00;;;;;;5053926;28;20202;-74
2022/05/04 04:04:26;;;;;;;22.52;16.15;;;14.30;1.00;;;;;;5054508;28;20199;-73
2022/05/04 04:06:53;;;;;;;18.50;14.90;;;14.30;1.00;;;;;;5054464;28;20741;-74
2022/05/04 04:09:20;;;;;;;16.73;15.02;;;14.20;1.00;;;;;;5053810;28;20203;-73
2022/05/04 04:11:48;;;;;;;15.85;14.40;;;14.30;1.00;;;;;;5054102;28;20231;-74
2022/05/04 04:14:15;;;;;;;17.83;16.02;;;14.30;1.00;;;;;;5053594;28;20233;-74
2022/05/04 04:16:42;;;;;;;20.45;18.42;;;14.20;1.00;;;;;;5054231;28;20257;-75
2022/05/04 04:19:09;;;;;;;23.77;21.10;;;14.10;99.90;;;;;;5053708;28;20389;-74
2022/05/04 04:21:50;;;;;;;23.40;21.02;;;14.20;99.90;;;;;;5054063;28;20305;-74
2022/05/04 04:24:17;;;;;;;23.38;20.85;;;14.10;99.90;;;;;;5053285;28;20565;-74
2022/05/04 04:26:44;;;;;;;22.85;20.38;;;14.10;99.90;;;;;;5053732;28;20286;-74
2022/05/04 04:29:13;;;;;;;22.48;20.15;;;14.20;99.90;;;;;;5053626;28;20229;-75
2022/05/04 04:31:40;;;;;;;26.38;23.00;;;14.20;99.90;;;;;;5053942;28;20234;-75
2022/05/04 04:34:07;;;;;;;22.85;20.45;;;14.20;99.90;;;;;;5053467;28;20213;-76
2022/05/04 04:36:34;;;;;;;24.23;21.20;;;14.20;99.90;;;;;;5053621;28;20674;-76
2022/05/04 04:39:01;;;;;;;23.27;19.85;;;14.10;99.90;;;;;;5052861;28;20207;-76
2022/05/04 04:41:29;;;;;;;25.48;21.13;;;14.10;99.90;;;;;;5053568;28;20202;-76
2022/05/04 04:43:56;;;;;;;23.80;20.90;;;14.00;99.90;;;;;;5053789;28;20292;-75
2022/05/04 04:46:25;;;;;;;25.92;22.45;;;14.00;99.90;;;;;;5054008;28;20288;-78
2022/05/04 04:48:52;;;;;;;25.33;22.42;;;14.00;99.90;;;;;;5053676;28;20269;-75
2022/05/04 04:51:19;;;;;;;25.02;22.00;;;13.90;99.90;;;;;;5052760;28;20643;-74
2022/05/04 04:53:46;;;;;;;25.35;21.13;;;14.00;99.90;;;;;;5053012;28;20272;-74
2022/05/04 04:56:14;;;;;;;29.20;21.83;;;14.00;99.90;;;;;;5052847;28;20679;-75
2022/05/04 04:58:41;;;;;;;23.90;21.25;;;14.00;99.90;;;;;;5053438;28;20215;-72
2022/05/04 05:01:07;;;;;;;27.50;22.90;;;14.00;99.90;;;;;;5052536;28;20260;-74
2022/05/04 05:03:36;;;;;;;25.33;22.38;;;14.10;99.90;;;;;;5053179;28;20272;-76
2022/05/04 05:06:03;;;;;;;29.05;21.83;;;14.10;99.90;;;;;;5052185;28;20211;-72
2022/05/04 05:08:30;;;;;;;30.83;23.10;;;14.00;99.90;;;;;;5052714;28;20667;-73
2022/05/04 05:10:57;;;;;;;24.75;21.75;;;14.00;99.90;;;;;;5052602;28;20663;-73
2022/05/04 05:13:24;;;;;;;24.98;22.23;;;14.00;99.90;;;;;;5053393;28;20258;-72
2022/05/04 05:16:07;;;;;;;24.73;22.02;;;14.10;99.90;;;;;;5052879;28;20671;-71
2022/05/04 05:18:36;;;;;;;26.25;21.52;;;14.10;99.90;;;;;;5052847;28;20681;-72
2022/05/04 05:21:04;;;;;;;27.67;23.35;;;14.00;99.90;;;;;;5052244;28;20273;-71
2022/05/04 05:23:31;;;;;;;31.60;22.60;;;14.10;99.90;;;;;;5052763;28;20207;-70
2022/05/04 05:25:58;;;;;;;24.42;21.75;;;14.00;99.90;;;;;;5052766;28;20234;-71
2022/05/04 05:28:25;;;;;;;25.42;21.20;;;14.10;99.90;;;;;;5053055;28;20312;-71
2022/05/04 05:30:51;;;;;;;26.38;21.05;;;14.10;99.90;;;;;;5053003;28;20203;-73
2022/05/04 05:33:18;;;;;;;27.98;21.88;;;14.10;99.90;;;;;;5052142;28;20246;-78
2022/05/04 05:35:47;;;;;;;24.10;20.08;;;14.10;99.90;;;;;;5052467;28;20215;-72
2022/05/04 05:38:14;;;;;;;23.27;20.27;;;14.00;99.90;;;;;;5051744;28;20299;-72
2022/05/04 05:40:41;;;;;;;24.30;21.55;;;14.10;99.90;;;;;;5052565;28;20286;-74
2022/05/04 05:43:09;;;;;;;24.20;21.60;;;14.20;99.90;;;;;;5052083;28;20242;-74
2022/05/04 05:45:36;;;;;;;24.33;21.23;;;14.30;99.90;;;;;;5052201;28;20731;-73
2022/05/04 05:48:03;;;;;;;25.00;21.20;;;14.30;99.90;;;;;;5051810;28;20677;-72
2022/05/04 05:50:30;;;;;;;23.20;20.13;;;14.30;99.90;;;;;;5052269;28;20203;-72
2022/05/04 05:52:58;;;;;;;30.63;21.92;;;14.20;99.90;;;;;;5052305;28;20630;-72
2022/05/04 05:55:25;;;;;;;25.95;23.23;;;14.20;99.90;;;;;;5052480;28;20199;-73
2022/05/04 05:57:52;;;;;;;26.58;22.48;;;14.20;99.90;;;;;;5052395;28;20260;-72
2022/05/04 06:00:19;;;;;;;25.85;22.48;;;14.20;99.90;;;;;;5051719;28;20252;-72
2022/05/04 06:02:46;;;;;;;29.33;21.88;;;14.20;99.90;;;;;;5052000;28;20233;-75
2022/05/04 06:05:13;;;;;;;29.08;24.08;;;14.20;99.90;;;;;;5051572;28;20264;-75
2022/05/04 06:07:41;;;;;;;28.92;22.83;;;14.20;99.90;;;;;;5051746;28;20678;-74
2022/05/04 06:10:10;;;;;;;31.85;23.40;;;14.30;99.90;;;;;;5051398;28;20690;-75
2022/05/04 06:12:38;;;;;;;29.20;22.23;;;14.30;99.90;;;;;;5051788;28;20230;-75
2022/05/04 06:15:08;;;;;;;29.75;23.73;;;14.30;99.90;;;;;;5050840;28;20199;-76
2022/05/04 06:17:35;;;;;;;28.92;21.55;;;14.30;99.90;;;;;;5051884;28;20202;-75
2022/05/04 06:20:02;;;;;;;28.05;23.20;;;14.30;99.90;;;;;;5050737;28;20206;-76
2022/05/04 06:22:29;;;;;;;29.60;23.13;;;14.40;99.90;;;;;;5051598;28;20270;-75
2022/05/04 06:24:56;;;;;;;27.10;22.90;;;14.40;99.90;;;;;;5050678;28;20203;-75
2022/05/04 06:27:24;;;;;;;26.88;21.65;;;14.40;99.90;;;;;;5050435;28;20203;-75
2022/05/04 06:35:20;;;;;;;29.60;23.10;;;14.50;99.90;;;;;;5050323;28;20336;-76
2022/05/04 06:37:47;;;;;;;32.25;25.77;;;14.40;99.90;;;;;;5049314;28;20218;-75
2022/05/04 06:40:14;;;;;;;61.78;25.15;;;14.40;99.90;;;;;;5050207;28;20211;-75
2022/05/04 06:42:42;;;;;;;26.98;23.40;;;14.50;99.90;;;;;;5051093;28;20659;-74
2022/05/04 06:45:10;;;;;;;24.85;22.25;;;14.50;99.90;;;;;;5050904;28;20206;-76
2022/05/04 06:47:37;;;;;;;23.92;21.35;;;14.40;99.90;;;;;;5051447;28;20269;-77
2022/05/04 06:50:05;;;;;;;30.70;23.00;;;14.40;99.90;;;;;;5050680;28;20203;-75
2022/05/04 06:52:33;;;;;;;28.70;23.67;;;14.40;99.90;;;;;;5051066;28;20230;-76
2022/05/04 06:55:00;;;;;;;28.67;23.40;;;14.40;99.90;;;;;;5050757;28;20258;-73
2022/05/04 06:57:26;;;;;;;29.48;22.27;;;14.50;99.90;;;;;;5051038;28;20206;-73
2022/05/04 06:59:55;;;;;;;30.83;23.90;;;14.50;99.90;;;;;;5051494;28;20343;-75
2022/05/04 07:02:22;;;;;;;27.75;22.48;;;14.50;99.90;;;;;;5050915;28;20203;-74
2022/05/04 07:04:49;;;;;;;26.52;23.35;;;14.60;99.90;;;;;;5050863;28;20203;-74
2022/05/04 07:07:16;;;;;;;29.05;23.00;;;14.60;99.90;;;;;;5059591;28;20214;-76
2022/05/04 07:09:43;;;;;;;27.33;22.48;;;14.70;99.90;;;;;;5057055;28;20198;-76
2022/05/04 07:12:11;;;;;;;26.50;21.17;;;14.70;99.90;;;;;;5063594;28;20287;-78
2022/05/04 07:14:38;;;;;;;28.88;23.98;;;14.70;99.90;;;;;;5059635;28;20678;-77
2022/05/04 07:17:07;;;;;;;27.77;22.65;;;14.70;99.90;;;;;;5070618;28;20202;-78
2022/05/04 07:19:34;;;;;;;23.85;21.33;;;14.80;99.90;;;;;;5064855;28;20211;-77
2022/05/04 07:22:00;;;;;;;28.90;23.95;;;14.90;99.90;;;;;;5050305;28;20207;-77
2022/05/04 07:24:28;;;;;;;25.58;22.95;;;14.80;99.90;;;;;;5050963;28;20259;-78
2022/05/04 07:26:55;;;;;;;28.48;22.30;;;14.80;99.90;;;;;;5051180;28;20211;-77
2022/05/04 07:29:22;;;;;;;27.27;22.23;;;14.70;99.90;;;;;;5050627;28;20712;-78
2022/05/04 07:31:49;;;;;;;24.42;20.67;;;14.80;99.90;;;;;;5055095;28;20656;-75
2022/05/04 07:34:18;;;;;;;31.13;23.17;;;14.90;99.90;;;;;;5058575;28;20214;-77
2022/05/04 07:36:45;;;;;;;26.75;22.73;;;14.80;99.90;;;;;;5054897;28;20246;-77
2022/05/04 07:42:21;;;;;;;27.17;23.98;;;14.90;99.90;;;;;;5054436;28;20575;-78
2022/05/04 07:44:45;;;;;;;29.00;21.60;;;15.00;99.90;;;;;;5069486;28;20217;-78
2022/05/04 07:47:12;;;;;;;25.33;21.67;;;15.00;99.90;;;;;;5062434;28;20206;-75
2022/05/04 07:49:41;;;;;;;25.48;21.63;;;15.00;99.90;;;;;;5070991;28;20679;-78
2022/05/04 07:52:08;;;;;;;25.90;23.23;;;15.10;99.90;;;;;;5073453;28;20279;-76
2022/05/04 07:54:35;;;;;;;24.33;20.83;;;15.10;99.90;;;;;;5071667;28;20254;-77
2022/05/04 07:57:02;;;;;;;22.63;20.33;;;15.00;99.90;;;;;;5071251;28;20202;-77
2022/05/04 07:59:29;;;;;;;27.50;21.52;;;15.00;99.90;;;;;;5073799;28;20206;-78
2022/05/04 08:04:41;;;;;;;26.80;20.95;;;15.10;99.90;;;;;;5073128;28;20260;-77
2022/05/04 08:07:08;;;;;;;23.80;21.25;;;15.00;99.90;;;;;;5064792;28;20214;-77
2022/05/04 08:09:36;;;;;;;26.65;21.45;;;15.00;99.90;;;;;;5073390;28;20202;-78
2022/05/04 08:12:06;;;;;;;26.30;21.45;;;14.90;99.90;;;;;;5062636;28;20223;-83
2022/05/04 08:14:33;;;;;;;25.92;22.35;;;15.00;99.90;;;;;;5055163;28;20607;-83
2022/05/04 08:17:00;;;;;;;24.83;22.20;;;15.00;99.90;;;;;;5053947;28;20249;-82
2022/05/04 08:19:27;;;;;;;25.13;22.58;;;15.00;99.90;;;;;;5069566;28;20210;-82
2022/05/04 08:21:56;;;;;;;24.48;21.92;;;15.00;99.90;;;;;;5072873;28;20267;-83
2022/05/04 08:24:23;;;;;;;23.63;20.45;;;15.10;99.90;;;;;;5054616;28;20206;-80
2022/05/04 08:26:50;;;;;;;27.92;23.85;;;15.10;99.90;;;;;;5054305;28;20203;-77
2022/05/04 08:29:17;;;;;;;25.52;21.38;;;15.00;99.90;;;;;;5053322;28;20203;-81
2022/05/04 08:31:44;;;;;;;31.05;21.83;;;15.00;99.90;;;;;;5053507;28;20544;-76
2022/05/04 08:34:11;;;;;;;27.27;21.63;;;15.10;99.90;;;;;;5053311;28;20285;-77
2022/05/04 08:36:38;;;;;;;34.97;22.20;;;15.10;99.90;;;;;;5053014;28;20218;-75
2022/05/04 08:39:08;;;;;;;26.42;22.20;;;15.10;99.90;;;;;;5052762;28;20202;-77
2022/05/04 08:41:36;;;;;;;29.52;23.33;;;15.10;99.90;;;;;;5061321;28;20216;-76
2022/05/04 08:44:04;;;;;;;28.42;21.73;;;15.40;99.90;;;;;;5054110;28;20301;-78
2022/05/04 08:46:34;;;;;;;25.80;22.20;;;15.50;99.90;;;;;;5061604;28;20375;-78
2022/05/04 08:49:03;;;;;;;30.13;23.08;;;15.60;99.90;;;;;;5062882;28;20210;-77
2022/05/04 08:51:31;;;;;;;27.60;22.33;;;15.80;99.90;;;;;;5062126;28;20217;-77
2022/05/04 08:53:58;;;;;;;26.58;21.80;;;15.80;99.90;;;;;;5069347;28;20283;-77
2022/05/04 08:56:27;;;;;;;28.80;22.92;;;15.90;99.90;;;;;;5073574;28;20230;-77
2022/05/04 08:58:54;;;;;;;25.95;20.75;;;15.90;99.90;;;;;;5058068;28;20248;-78
2022/05/04 09:01:21;;;;;;;26.33;23.20;;;15.70;99.90;;;;;;5053258;28;20207;-79
2022/05/04 09:03:48;;;;;;;28.63;22.65;;;15.50;99.90;;;;;;5059258;28;20678;-77
2022/05/04 09:06:26;;;;;;;24.67;21.48;;;15.30;99.90;;;;;;5072717;28;20207;-78
2022/05/04 09:08:59;;;;;;;25.55;21.98;;;15.30;99.90;;;;;;5073488;28;20284;-78
2022/05/04 09:11:28;;;;;;;24.63;21.05;;;15.40;99.90;;;;;;5067107;28;20213;-74
2022/05/04 09:13:55;;;;;;;28.42;20.88;;;15.60;99.90;;;;;;5073119;28;20279;-76
2022/05/04 09:16:30;;;;;;;24.00;20.88;;;16.00;99.90;;;;;;5072336;28;20227;-75
2022/05/04 09:18:59;;;;;;;23.75;20.48;;;16.30;99.90;;;;;;5072566;28;20219;-75
2022/05/04 09:21:27;;;;;;;28.50;19.83;;;16.60;99.90;;;;;;5073026;28;20206;-74
2022/05/04 09:23:55;;;;;;;22.45;19.48;;;16.60;99.90;;;;;;5072783;28;20194;-77
2022/05/04 09:26:22;;;;;;;22.33;19.48;;;16.60;99.90;;;;;;5072784;28;20198;-76
2022/05/04 09:28:52;;;;;;;25.08;20.23;;;16.50;99.90;;;;;;5072511;28;20275;-74
2022/05/04 09:31:24;;;;;;;28.63;25.67;;;16.60;99.90;;;;;;5057126;28;20439;-80
2022/05/04 09:33:56;;;;;;;25.90;21.70;;;16.30;99.90;;;;;;5053661;28;20241;-76
2022/05/04 09:36:34;;;;;;;22.27;19.98;;;16.20;99.90;;;;;;5071910;28;20216;-77
2022/05/04 09:45:15;;;;;;;23.80;18.52;;;16.20;99.90;;;;;;5026424;28;20709;-79
2022/05/04 09:47:44;;;;;;;24.90;20.95;;;15.90;99.90;;;;;;5020542;28;20208;-77
2022/05/04 09:50:13;;;;;;;25.63;20.95;;;15.90;99.90;;;;;;5043206;28;20593;-78
2022/05/04 09:52:42;;;;;;;26.13;20.05;;;15.90;99.90;;;;;;5061662;28;20284;-79
2022/05/04 09:55:16;;;;;;;24.42;18.95;;;15.90;99.90;;;;;;5066192;28;20768;-79
2022/05/04 09:57:44;;;;;;;21.58;18.77;;;15.90;99.90;;;;;;5061386;28;20198;-78
2022/05/04 10:00:14;;;;;;;22.38;18.42;;;15.80;99.90;;;;;;5059004;28;20681;-79
2022/05/04 10:02:44;;;;;;;24.27;19.70;;;15.90;99.90;;;;;;5058717;28;20322;-77
2022/05/04 10:05:11;;;;;;;25.58;19.45;;;15.90;99.90;;;;;;5060956;28;20658;-77
2022/05/04 10:07:39;;;;;;;19.17;17.15;;;16.00;99.90;;;;;;5051870;28;20253;-80
2022/05/04 10:10:09;;;;;;;24.88;20.48;;;16.20;99.90;;;;;;5060677;28;20567;-81
2022/05/04 10:12:41;;;;;;;25.63;20.95;;;16.40;99.90;;;;;;5066636;28;20215;-79
2022/05/04 10:15:10;;;;;;;23.98;20.38;;;16.50;99.90;;;;;;5057423;28;20207;-79
2022/05/04 10:17:45;;;;;;;21.13;18.75;;;16.50;99.90;;;;;;5070592;28;20206;-80
2022/05/04 10:20:16;;;;;;;25.45;18.15;;;16.40;99.90;;;;;;5066870;28;20214;-80
2022/05/04 10:22:48;;;;;;;26.30;20.00;;;16.50;99.90;;;;;;5060610;28;20205;-78
2022/05/04 10:25:17;;;;;;;25.15;19.15;;;16.60;99.90;;;;;;5065448;28;20198;-77
2022/05/04 10:27:46;;;;;;;20.88;18.58;;;16.60;99.90;;;;;;5058219;28;20203;-79
2022/05/04 10:30:31;;;;;;;25.23;19.75;;;16.90;99.90;;;;;;5066655;28;20260;-81
2022/05/04 10:33:02;;;;;;;23.65;18.85;;;17.00;99.90;;;;;;5068522;28;20609;-77
2022/05/04 10:35:33;;;;;;;24.08;21.10;;;17.20;99.90;;;;;;5070792;28;20206;-82
2022/05/04 10:38:07;;;;;;;26.23;20.48;;;17.20;99.90;;;;;;5070365;28;20210;-78
2022/05/04 10:40:36;;;;;;;24.00;19.10;;;17.20;99.90;;;;;;5063945;28;20225;-77
2022/05/04 10:43:05;;;;;;;25.15;19.75;;;17.30;99.90;;;;;;5062017;28;20271;-82
2022/05/04 10:45:35;;;;;;;21.83;19.45;;;17.30;99.90;;;;;;5070763;28;20205;-78
2022/05/04 10:48:28;;;;;;;22.17;19.55;;;17.50;99.90;;;;;;5070509;28;20214;-82
2022/05/04 10:50:59;;;;;;;22.08;19.67;;;17.50;99.90;;;;;;5052343;28;20257;-80
2022/05/04 10:53:44;;;;;;;23.88;20.10;;;17.50;99.90;;;;;;5060308;28;20280;-84
2022/05/04 10:56:13;;;;;;;21.80;19.30;;;17.50;99.90;;;;;;5061661;28;20210;-82
2022/05/04 10:58:44;;;;;;;21.83;18.52;;;17.70;99.90;;;;;;5062540;28;20220;-82
2022/05/04 11:01:14;;;;;;;20.27;17.58;;;18.10;99.90;;;;;;5056693;28;20677;-81
2022/05/04 11:03:59;;;;;;;22.25;18.00;;;18.30;99.90;;;;;;5057429;28;20237;-82
2022/05/04 11:06:31;;;;;;;22.10;18.83;;;18.40;99.90;;;;;;5059173;28;20210;-79
2022/05/04 11:09:04;;;;;;;20.50;18.17;;;18.60;99.90;;;;;;5070932;28;20207;-75
2022/05/04 11:11:32;;;;;;;19.20;17.25;;;18.70;99.90;;;;;;5070673;28;20209;-77
2022/05/04 11:13:59;;;;;;;19.67;16.75;;;18.30;99.90;;;;;;5063818;28;20238;-84
2022/05/04 11:16:28;;;;;;;20.23;15.90;;;18.40;99.90;;;;;;5052969;28;20213;-79
2022/05/04 11:18:58;;;;;;;17.67;15.70;;;19.00;99.90;;;;;;5059140;28;20735;-86
2022/05/04 11:21:27;;;;;;;17.33;13.82;;;18.90;99.90;;;;;;5065649;28;20263;-85
2022/05/04 11:23:58;;;;;;;17.38;15.38;;;19.20;99.90;;;;;;5071973;28;20267;-85
2022/05/04 11:26:26;;;;;;;19.63;17.50;;;19.40;99.90;;;;;;5071647;28;20206;-83
2022/05/04 11:28:54;;;;;;;20.42;16.55;;;18.80;99.90;;;;;;5071638;28;20546;-84
2022/05/04 11:31:22;;;;;;;23.15;15.13;;;19.10;99.90;;;;;;5071049;28;20577;-79
2022/05/04 11:33:50;;;;;;;17.73;15.77;;;19.40;99.90;;;;;;5071260;28;20638;-83
2022/05/04 11:36:21;;;;;;;17.45;15.45;;;19.40;99.90;;;;;;5070873;28;20210;-86
2022/05/04 11:38:49;;;;;;;16.95;15.07;;;19.40;99.90;;;;;;5070895;28;20210;-84
2022/05/04 11:41:17;;;;;;;18.00;14.20;;;19.50;99.90;;;;;;5070980;28;20210;-83
2022/05/04 11:43:45;;;;;;;16.67;15.02;;;19.60;99.90;;;;;;5071062;28;20209;-84
2022/05/04 11:46:13;;;;;;;18.85;14.68;;;19.90;99.90;;;;;;5070888;28;20206;-83
2022/05/04 11:48:42;;;;;;;19.13;15.73;;;19.80;99.90;;;;;;5071297;28;20205;-81
2022/05/04 11:51:10;;;;;;;19.33;15.02;;;19.80;99.90;;;;;;5063402;28;20202;-79
2022/05/04 11:53:39;;;;;;;21.30;16.33;;;19.80;99.90;;;;;;5061380;28;20325;-78
2022/05/04 11:56:08;;;;;;;21.20;16.15;;;19.70;99.90;;;;;;5068572;28;20213;-75
2022/05/04 11:58:36;;;;;;;17.45;15.65;;;19.80;99.90;;;;;;5070134;28;20630;-80
2022/05/04 12:01:05;;;;;;;16.90;15.13;;;19.80;99.90;;;;;;5069901;28;20644;-79
2022/05/04 12:03:35;;;;;;;18.05;14.18;;;19.80;99.90;;;;;;5062080;28;20272;-81
2022/05/04 12:06:03;;;;;;;17.00;15.20;;;20.10;99.90;;;;;;5067588;28;20201;-83
2022/05/04 12:08:31;;;;;;;19.83;14.68;;;20.10;99.90;;;;;;5065057;28;20689;-81
2022/05/04 12:11:00;;;;;;;15.40;13.45;;;19.80;99.90;;;;;;5070350;28;20206;-81
2022/05/04 12:13:28;;;;;;;18.42;13.55;;;19.50;99.90;;;;;;5070261;28;20279;-78
2022/05/04 12:15:58;;;;;;;16.83;15.07;;;19.00;99.90;;;;;;5071309;28;20599;-86
2022/05/04 12:18:29;;;;;;;20.17;15.48;;;18.50;99.90;;;;;;5070118;28;20199;-81
2022/05/04 12:20:56;;;;;;;16.08;13.65;;;17.90;99.90;;;;;;5060287;28;20648;-80
2022/05/04 12:23:28;;;;;;;15.80;14.23;;;17.60;99.90;;;;;;5061012;28;20210;-78
2022/05/04 12:25:56;;;;;;;15.40;13.07;;;17.50;99.90;;;;;;5071221;28;20210;-82
2022/05/04 12:28:25;;;;;;;18.70;12.68;;;17.40;99.90;;;;;;5070821;28;20209;-78
2022/05/04 12:33:38;;;;;;;16.35;13.80;;;17.30;99.90;;;;;;5060519;28;20331;-85
2022/05/04 12:36:07;;;;;;;15.73;13.25;;;17.20;99.90;;;;;;5068116;28;20356;-78
2022/05/04 12:38:35;;;;;;;14.10;12.80;;;17.30;99.90;;;;;;5067100;28;20210;-84
2022/05/04 12:41:03;;;;;;;16.85;14.07;;;17.30;99.90;;;;;;5066722;28;20264;-80
2022/05/04 12:43:36;;;;;;;14.65;13.15;;;17.30;99.90;;;;;;5059667;28;20266;-82
2022/05/04 12:46:04;;;;;;;16.30;13.52;;;17.40;99.90;;;;;;5053502;28;20209;-84
2022/05/04 12:48:32;;;;;;;18.25;13.13;;;17.40;99.90;;;;;;5063002;28;20272;-81
2022/05/04 12:51:00;;;;;;;15.15;12.23;;;17.40;99.90;;;;;;5062070;28;20623;-81
2022/05/04 12:53:28;;;;;;;14.25;12.80;;;17.40;99.90;;;;;;5068745;28;20206;-82
2022/05/04 12:58:41;;;;;;;14.40;13.00;;;17.20;99.90;;;;;;5061231;28;20344;-76
2022/05/04 13:01:08;;;;;;;16.02;13.07;;;17.10;99.90;;;;;;5061147;28;20210;-82
2022/05/04 13:03:36;;;;;;;16.48;13.27;;;17.00;99.90;;;;;;5065244;28;20213;-83
2022/05/04 13:06:03;;;;;;;16.00;13.20;;;16.90;99.90;;;;;;5060099;28;20216;-82